LOWS 200120Z AUTO 15009KT 9999 FEW050 SCT090 BKN100 18/14 Q1025 LOWS 200050Z AUTO 16007KT 9999 //////CB FEW100 18/14 Q1026 LOWS 200020Z AUTO 20007KT 170V230 9999 //////CB FEW060 SCT080 BKN130 20/13 Q1026 RESHRA LOWS 192350Z AUTO 26007KT 190V310 9999 -SHRA //////CB FEW060 OVC080 21/12 Q1026 LOWS 192320Z AUTO 22018G30KT 9999 //////CB FEW070 BKN100 22/12 Q1024 RETS LOWS 192250Z AUTO 23015G26KT 9999 TS //////CB FEW007 SCT080 BKN110 22/14 Q1024 LOWS 192220Z AUTO 18005KT 9999 //////CB FEW060 SCT070 BKN120 20/15 Q1023 LOWS 192150Z AUTO 20003KT 130V300 9999 //////CB BKN130 21/15 Q1023 LOWS 192120Z 18006KT 9999 FEW070CB SCT080 20/15 Q1023 NOSIG LOWS 192050Z 17005KT 140V200 9999 SCT110 20/15 Q1022 NOSIG LOWS 192020Z 16006KT 9999 FEW110 21/15 Q1022 NOSIG LOWS 191950Z 16004KT 140V200 9999 FEW110 21/16 Q1022 NOSIG LOWS 191920Z 18005KT 9999 FEW070 22/16 Q1022 NOSIG LOWS 191850Z VRB02KT 9999 FEW070 23/17 Q1022 NOSIG LOWS 191820Z VRB01KT 9999 FEW070 25/16 Q1021 NOSIG LOWS 191750Z 03004KT 9999 FEW070 27/14 Q1021 NOSIG LOWS 191720Z 02004KT 9999 FEW070 28/15 Q1021 NOSIG LOWS 191650Z 02005KT 9999 FEW070 28/15 Q1021 NOSIG LOWS 191620Z VRB02KT 9999 FEW070 29/14 Q1021 NOSIG LOWS 191550Z AUTO 01004KT 300V080 9999 FEW070 29/14 Q1021 NOSIG LOWS 191520Z 02007KT 340V050 9999 FEW070 28/14 Q1021 NOSIG LOWS 191450Z 36008KT 300V050 9999 FEW070 FEW070CB 29/14 Q1021 NOSIG LOWS 191420Z 36006KT 320V030 9999 FEW070 29/16 Q1021 NOSIG LOWS 191350Z 35008KT 320V030 9999 FEW070 28/13 Q1021 NOSIG LOWS 191320Z 35007KT 300V020 9999 FEW070 28/15 Q1022 NOSIG LOWS 191250Z 36005KT 300V040 9999 FEW070 28/15 Q1022 NOSIG LOWS 191220Z VRB06KT 9999 FEW070 28/13 Q1022 NOSIG LOWS 191150Z 35007KT 300V030 9999 FEW060 27/13 Q1022 NOSIG LOWS 191120Z 35004KT 250V050 9999 FEW060 28/14 Q1022 NOSIG LOWS 191050Z VRB03KT 9999 FEW060 27/11 Q1023 NOSIG LOWS 191020Z 23003KT 210V280 9999 FEW060 26/11 Q1023 NOSIG LOWS 190950Z 19003KT 110V230 9999 FEW060 26/11 Q1023 NOSIG LOWS 190920Z AUTO 16006KT 130V200 9999 FEW060 25/11 Q1023 NOSIG LOWS 190850Z AUTO 15007KT 120V190 CAVOK 24/12 Q1023 NOSIG LOWS 190820Z AUTO 15007KT 120V180 CAVOK 23/11 Q1023 NOSIG LOWS 190750Z AUTO 15009KT 110V180 CAVOK 22/11 Q1023 NOSIG LOWS 190720Z AUTO 15008KT 120V180 CAVOK 21/11 Q1023 NOSIG LOWS 190650Z AUTO 15008KT CAVOK 20/11 Q1023 NOSIG LOWS 190620Z AUTO 14007KT 110V180 CAVOK 19/11 Q1023 NOSIG LOWS 190550Z AUTO 19005KT 160V230 CAVOK 16/12 Q1023 NOSIG LOWS 190520Z AUTO VRB01KT CAVOK 14/10 Q1023 NOSIG LOWS 190450Z AUTO VRB02KT CAVOK 13/10 Q1023 NOSIG LOWS 190420Z AUTO VRB01KT CAVOK 09/08 Q1023 NOSIG LOWS 190350Z AUTO VRB01KT CAVOK 09/08 Q1023 NOSIG LOWS 190320Z AUTO VRB01KT 9999 NSC 08/08 Q1023 LOWS 190250Z AUTO VRB02KT 9999 NSC 09/08 Q1023 LOWS 190220Z AUTO VRB02KT 9999 NCD 09/08 Q1023 LOWS 190150Z AUTO VRB02KT 9999 NCD 09/08 Q1023 LOWS 190120Z AUTO VRB01KT 9999 NCD 10/09 Q1023 LOWS 190050Z AUTO VRB02KT 9999 NCD 10/08 Q1023 LOWS 190020Z AUTO 15002KT 9999 NCD 10/09 Q1023 LOWS 182350Z AUTO VRB02KT 9999 NCD 11/09 Q1024 LOWS 182320Z AUTO 00000KT 9999 NCD 11/09 Q1024 LOWS 182250Z AUTO VRB01KT 9999 NCD 12/09 Q1024 LOWS 182220Z AUTO VRB02KT 9999 NCD 13/09 Q1024 LOWS 182150Z AUTO 17002KT 9999 NCD 13/09 Q1024 LOWS 182120Z AUTO VRB02KT 9999 NCD 13/09 Q1024 LOWS 182050Z 23002KT CAVOK 13/10 Q1024 NOSIG LOWS 182020Z 29003KT CAVOK 15/09 Q1024 NOSIG LOWS 181950Z 31005KT CAVOK 17/08 Q1024 NOSIG LOWS 181920Z 32005KT 9999 FEW080 17/09 Q1024 NOSIG LOWS 181850Z 02006KT 9999 FEW080 19/08 Q1024 NOSIG LOWS 181820Z 04008KT 9999 FEW070 20/08 Q1024 NOSIG LOWS 181750Z 02008KT 9999 FEW070 21/09 Q1024 NOSIG LOWS 181720Z 02009KT 9999 FEW070 22/09 Q1024 NOSIG LOWS 181650Z 03008KT 9999 FEW060 23/08 Q1023 NOSIG LOWS 181620Z 02010KT 9999 FEW060 23/08 Q1023 NOSIG LOWS 181550Z AUTO 02010KT 350V060 9999 FEW060 23/09 Q1023 NOSIG LOWS 181520Z 03011KT 9999 FEW060 23/09 Q1023 NOSIG LOWS 181450Z 02009KT 9999 FEW060 23/09 Q1024 NOSIG LOWS 181420Z 01010KT 9999 FEW060 24/09 Q1024 NOSIG LOWS 181350Z 03011KT 9999 FEW060 23/10 Q1024 NOSIG

METAR Messwerte "SALZBURG AIRPORT" LOWS

Zurück zur Übersicht

Ortsname
Ländercode / m ü. NN
Zeit Temperatur Taupunkt Rel.
Luftfeuchte
Luftdruck:
Altimeter
NN
Station
Wind in Beaufort
(Knoten)
Sichtweite
(Meter)
Wolken
(Meter über Grund)
Wettererscheinung
SALZBURG AIRPORT
AT 427
Fr 20.05. 03:20181477 %1025
1025
974
SSO 3 (9)>= 10000Stark bewölkt (3000)
Wolkig (2700)
Leicht bewölkt (1500)
 
SALZBURG AIRPORT
AT 427
Fr 20.05. 02:50181477 %1026
1026
975
SSO 3 (7)>= 10000Leicht bewölkt (3000) 
SALZBURG AIRPORT
AT 427
Fr 20.05. 02:20201364 %1026
1025
975
SSW 3 (7)
S - SW
>= 10000Stark bewölkt (4000)
Wolkig (2400)
Leicht bewölkt (1800)
 
SALZBURG AIRPORT
AT 427
Fr 20.05. 01:50211256 %1026
1025
975
W 3 (7)
S - NW
>= 10000Bedeckt (2400)
Leicht bewölkt (1800)
Regen-Schauer (schwach)
SALZBURG AIRPORT
AT 427
Fr 20.05. 01:20221253 %1024
1023
973
SW 5 (18) - 7 (30)>= 10000Stark bewölkt (3000)
Leicht bewölkt (2100)
 
SALZBURG AIRPORT
AT 427
Fr 20.05. 00:50221460 %1024
1023
973
SW 4 (15) - 6 (26)>= 10000Stark bewölkt (3400)
Wolkig (2400)
Leicht bewölkt (210)
 
SALZBURG AIRPORT
AT 427
Fr 20.05. 00:20201573 %1023
1022
972
S 2 (5)>= 10000Stark bewölkt (3700)
Wolkig (2100)
Leicht bewölkt (1800)
 
SALZBURG AIRPORT
AT 427
Do 19.05. 23:50211569 %1023
1022
972
SSW 2 (3)
SO - WNW
>= 10000Stark bewölkt (4000) 
SALZBURG AIRPORT
AT 427
Do 19.05. 23:20201573 %1023
1022
972
S 2 (6)>= 10000Wolkig (2400)
Leicht bewölkt Cb (2100)
 
SALZBURG AIRPORT
AT 427
Do 19.05. 22:50201573 %1022
1021
971
S 2 (5)
SO - SSW
>= 10000Wolkig (3400) 
SALZBURG AIRPORT
AT 427
Do 19.05. 22:20211569 %1022
1021
971
SSO 2 (6)>= 10000Leicht bewölkt (3400) 
SALZBURG AIRPORT
AT 427
Do 19.05. 21:50211673 %1022
1021
971
SSO 2 (4)
SO - SSW
>= 10000Leicht bewölkt (3400) 
SALZBURG AIRPORT
AT 427
Do 19.05. 21:20221669 %1022
1021
971
S 2 (5)>= 10000Leicht bewölkt (2100) 
SALZBURG AIRPORT
AT 427
Do 19.05. 20:50231769 %1022
1021
971
Uml 1 (2)>= 10000Leicht bewölkt (2100) 
SALZBURG AIRPORT
AT 427
Do 19.05. 20:20251657 %1021
1019
970
Uml 1 (1)>= 10000Leicht bewölkt (2100) 
SALZBURG AIRPORT
AT 427
Do 19.05. 19:50271445 %1021
1019
970
NNO 2 (4)>= 10000Leicht bewölkt (2100) 
SALZBURG AIRPORT
AT 427
Do 19.05. 19:20281545 %1021
1019
970
NNO 2 (4)>= 10000Leicht bewölkt (2100) 
SALZBURG AIRPORT
AT 427
Do 19.05. 18:50281545 %1021
1019
970
NNO 2 (5)>= 10000Leicht bewölkt (2100) 
SALZBURG AIRPORT
AT 427
Do 19.05. 18:20291440 %1021
1019
970
Uml 1 (2)>= 10000Leicht bewölkt (2100) 
SALZBURG AIRPORT
AT 427
Do 19.05. 17:50291440 %1021
1019
970
N 2 (4)
WNW - O
>= 10000Leicht bewölkt (2100) 
SALZBURG AIRPORT
AT 427
Do 19.05. 17:20281442 %1021
1019
970
NNO 3 (7)
NNW - NO
>= 10000Leicht bewölkt (2100) 
SALZBURG AIRPORT
AT 427
Do 19.05. 16:50291440 %1021
1019
970
N 3 (8)
WNW - NO
>= 10000Leicht bewölkt (2100)
Leicht bewölkt Cb (2100)
 
SALZBURG AIRPORT
AT 427
Do 19.05. 16:20291645 %1021
1019
970
N 2 (6)
NW - NNO
>= 10000Leicht bewölkt (2100) 
SALZBURG AIRPORT
AT 427
Do 19.05. 15:50281340 %1021
1019
970
N 3 (8)
NW - NNO
>= 10000Leicht bewölkt (2100) 
SALZBURG AIRPORT
AT 427
Do 19.05. 15:20281545 %1022
1020
971
N 3 (7)
WNW - NNO
>= 10000Leicht bewölkt (2100) 
SALZBURG AIRPORT
AT 427
Do 19.05. 14:50281545 %1022
1020
971
N 2 (5)
WNW - NO
>= 10000Leicht bewölkt (2100) 
SALZBURG AIRPORT
AT 427
Do 19.05. 14:20281340 %1022
1020
971
Uml 2 (6)>= 10000Leicht bewölkt (2100) 
SALZBURG AIRPORT
AT 427
Do 19.05. 13:50271342 %1022
1020
971
N 3 (7)
WNW - NNO
>= 10000Leicht bewölkt (1800) 
SALZBURG AIRPORT
AT 427
Do 19.05. 13:20281442 %1022
1020
971
N 2 (4)
WSW - NO
>= 10000Leicht bewölkt (1800) 
SALZBURG AIRPORT
AT 427
Do 19.05. 12:50271137 %1023
1021
972
Uml 2 (3)>= 10000Leicht bewölkt (1800) 
SALZBURG AIRPORT
AT 427
Do 19.05. 12:20261139 %1023
1021
972
SW 2 (3)
SSW - W
>= 10000Leicht bewölkt (1800) 
SALZBURG AIRPORT
AT 427
Do 19.05. 11:50261139 %1023
1021
972
S 2 (3)
OSO - SW
>= 10000Leicht bewölkt (1800) 
SALZBURG AIRPORT
AT 427
Do 19.05. 11:20251141 %1023
1021
972
SSO 2 (6)
SO - SSW
>= 10000Leicht bewölkt (1800) 
SALZBURG AIRPORT
AT 427
Do 19.05. 10:50241247 %1023
1022
972
SSO 3 (7)
OSO - S
>= 10000Nicht signifikant 
SALZBURG AIRPORT
AT 427
Do 19.05. 10:20231147 %1023
1022
972
SSO 3 (7)
OSO - S
>= 10000Nicht signifikant 
SALZBURG AIRPORT
AT 427
Do 19.05. 09:50221150 %1023
1022
972
SSO 3 (9)
OSO - S
>= 10000Nicht signifikant 
SALZBURG AIRPORT
AT 427
Do 19.05. 09:20211153 %1023
1022
972
SSO 3 (8)
OSO - S
>= 10000Nicht signifikant 
SALZBURG AIRPORT
AT 427
Do 19.05. 08:50201156 %1023
1022
972
SSO 3 (8)>= 10000Nicht signifikant 
SALZBURG AIRPORT
AT 427
Do 19.05. 08:20191160 %1023
1022
972
SO 3 (7)
OSO - S
>= 10000Nicht signifikant 
SALZBURG AIRPORT
AT 427
Do 19.05. 07:50161277 %1023
1023
972
S 2 (5)
SSO - SW
>= 10000Nicht signifikant 
SALZBURG AIRPORT
AT 427
Do 19.05. 07:20141077 %1023
1023
972
Uml 1 (1)>= 10000Nicht signifikant 
SALZBURG AIRPORT
AT 427
Do 19.05. 06:50131082 %1023
1023
972
Uml 1 (2)>= 10000Nicht signifikant 
SALZBURG AIRPORT
AT 427
Do 19.05. 06:209893 %1023
1024
972
Uml 1 (1)>= 10000Nicht signifikant 
SALZBURG AIRPORT
AT 427
Do 19.05. 05:509893 %1023
1024
972
Uml 1 (1)>= 10000Nicht signifikant 
SALZBURG AIRPORT
AT 427
Do 19.05. 05:2088100 %1023
1024
972
Uml 1 (1)>= 10000Nicht signifikant 
SALZBURG AIRPORT
AT 427
Do 19.05. 04:509893 %1023
1024
972
Uml 1 (2)>= 10000Nicht signifikant 
SALZBURG AIRPORT
AT 427
Do 19.05. 04:209893 %1023
1024
972
Uml 1 (2)>= 10000  
SALZBURG AIRPORT
AT 427
Do 19.05. 03:509893 %1023
1024
972
Uml 1 (2)>= 10000  
SALZBURG AIRPORT
AT 427
Do 19.05. 03:2010993 %1023
1024
972
Uml 1 (1)>= 10000  
SALZBURG AIRPORT
AT 427
Do 19.05. 02:5010887 %1023
1024
972
Uml 1 (2)>= 10000  
SALZBURG AIRPORT
AT 427
Do 19.05. 02:2010993 %1023
1024
972
SSO 1 (2)>= 10000  
SALZBURG AIRPORT
AT 427
Do 19.05. 01:5011987 %1024
1025
973
Uml 1 (2)>= 10000  
SALZBURG AIRPORT
AT 427
Do 19.05. 01:2011987 %1024
1025
973
Windstill>= 10000  
SALZBURG AIRPORT
AT 427
Do 19.05. 00:5012982 %1024
1025
973
Uml 1 (1)>= 10000  
SALZBURG AIRPORT
AT 427
Do 19.05. 00:2013977 %1024
1024
973
Uml 1 (2)>= 10000  
SALZBURG AIRPORT
AT 427
Mi 18.05. 23:5013977 %1024
1024
973
S 1 (2)>= 10000  
SALZBURG AIRPORT
AT 427
Mi 18.05. 23:2013977 %1024
1024
973
Uml 1 (2)>= 10000  
SALZBURG AIRPORT
AT 427
Mi 18.05. 22:50131082 %1024
1024
973
SW 1 (2)>= 10000Nicht signifikant 
SALZBURG AIRPORT
AT 427
Mi 18.05. 22:2015967 %1024
1024
973
WNW 2 (3)>= 10000Nicht signifikant 
SALZBURG AIRPORT
AT 427
Mi 18.05. 21:5017855 %1024
1024
973
NW 2 (5)>= 10000Nicht signifikant 
SALZBURG AIRPORT
AT 427
Mi 18.05. 21:2017959 %1024
1024
973
NW 2 (5)>= 10000Leicht bewölkt (2400) 
SALZBURG AIRPORT
AT 427
Mi 18.05. 20:5019849 %1024
1023
973
NNO 2 (6)>= 10000Leicht bewölkt (2400) 
SALZBURG AIRPORT
AT 427
Mi 18.05. 20:2020846 %1024
1023
973
NO 3 (8)>= 10000Leicht bewölkt (2100) 
SALZBURG AIRPORT
AT 427
Mi 18.05. 19:5021946 %1024
1023
973
NNO 3 (8)>= 10000Leicht bewölkt (2100) 
SALZBURG AIRPORT
AT 427
Mi 18.05. 19:2022943 %1024
1023
973
NNO 3 (9)>= 10000Leicht bewölkt (2100) 
SALZBURG AIRPORT
AT 427
Mi 18.05. 18:5023838 %1023
1022
972
NNO 3 (8)>= 10000Leicht bewölkt (1800) 
SALZBURG AIRPORT
AT 427
Mi 18.05. 18:2023838 %1023
1022
972
NNO 3 (10)>= 10000Leicht bewölkt (1800) 
SALZBURG AIRPORT
AT 427
Mi 18.05. 17:5023941 %1023
1022
972
NNO 3 (10)
N - ONO
>= 10000Leicht bewölkt (1800) 
SALZBURG AIRPORT
AT 427
Mi 18.05. 17:2023941 %1023
1022
972
NNO 4 (11)>= 10000Leicht bewölkt (1800) 
SALZBURG AIRPORT
AT 427
Mi 18.05. 16:5023941 %1024
1023
973
NNO 3 (9)>= 10000Leicht bewölkt (1800) 
SALZBURG AIRPORT
AT 427
Mi 18.05. 16:2024938 %1024
1023
973
N 3 (10)>= 10000Leicht bewölkt (1800) 
SALZBURG AIRPORT
AT 427
Mi 18.05. 15:50231044 %1024
1023
973
NNO 4 (11)>= 10000Leicht bewölkt (1800) 

Altimeter: Einstellung am Altimeter (Höhenmesser), die Höhe 0 muss auf diesen Luftdruckwert zeigen, damit das Gerät die Stationshöhe richtig anzeigt.

NN: Luftdruck reduziert auf "Normal Null", auf Meereshöhe, dieser von der Temperatur abhängige Wert wird bisweilen unkorrekt einfach als "Luftdruck" bezeichnet. Eigentlich nur eine fiktive Größe, die es erlaubt, Stationen auf unterschiedlichen Höhen miteinander zu vergleichen.

Station: Realer Luftdruck an der Station.